Time;durP1;ratioP1;P1;durP2;ratioP2;P2;SDS_P1;SDS_P2;PMS_P1;PMS_P2;Temp;Humidity;BMP_temperature;BMP_pressure;BME280_temperature;BME280_humidity;BME280_pressure;Samples;Min_cycle;Max_cycle;Signal;HPM_P1;HPM_P2
2023/03/24 00:01:24;;;;;;;3.67;2.10;;;;;;;;;;5017408;28;20435;-54
2023/03/24 00:03:53;;;;;;;3.60;2.57;;;;;;;;;;4989341;28;21153;-52
2023/03/24 00:06:21;;;;;;;3.80;2.20;;;;;;;;;;5021939;28;20435;-51
2023/03/24 00:08:47;;;;;;;3.33;2.43;;;;;;;;;;5009053;28;20443;-52
2023/03/24 00:11:13;;;;;;;2.17;1.90;;;;;;;;;;5021231;28;20431;-53
2023/03/24 00:13:40;;;;;;;3.90;2.40;;;;;;;;;;4998318;28;20459;-55
2023/03/24 00:16:11;;;;;;;4.03;2.20;;;;;;;;;;5003298;28;20952;-53
2023/03/24 00:18:38;;;;;;;3.83;2.30;;;;;;;;;;5015607;28;20431;-53
2023/03/24 00:21:04;;;;;;;2.97;2.00;;;;;;;;;;5018685;28;20428;-53
2023/03/24 00:23:41;;;;;;;4.20;1.90;;;;;;;;;;5010773;28;21297;-53
2023/03/24 00:26:14;;;;;;;3.10;2.40;;;;;;;;;;5005890;28;20486;-53
2023/03/24 00:28:41;;;;;;;3.10;2.30;;;;;;;;;;4998133;28;20470;-54
2023/03/24 00:31:07;;;;;;;4.83;2.50;;;;;;;;;;5019644;28;20451;-53
2023/03/24 00:33:34;;;;;;;3.50;2.60;;;;;;;;;;5003079;28;20709;-53
2023/03/24 00:36:04;;;;;;;7.43;5.73;;;;;;;;;;5016762;28;20538;-53
2023/03/24 00:38:30;;;;;;;6.00;2.80;;;;;;;;;;5017890;28;23455;-54
2023/03/24 00:40:57;;;;;;;3.30;2.63;;;;;;;;;;5021637;28;20995;-53
2023/03/24 00:43:24;;;;;;;3.37;2.23;;;;;;;;;;5001509;28;20509;-53
2023/03/24 00:45:51;;;;;;;2.47;1.70;;;;;;;;;;5005150;28;20467;-53
2023/03/24 00:48:17;;;;;;;3.23;2.00;;;;;;;;;;5022259;28;20435;-54
2023/03/24 00:50:50;;;;;;;7.00;2.43;;;;;;;;;;5016118;28;20885;-53
2023/03/24 00:53:17;;;;;;;3.07;2.30;;;;;;;;;;5023353;28;20474;-53
2023/03/24 00:55:48;;;;;;;4.00;2.73;;;;;;;;;;5020434;28;20440;-54
2023/03/24 00:58:32;;;;;;;6.67;3.10;;;;;;;;;;5002572;28;20454;-54
2023/03/24 01:00:59;;;;;;;2.73;1.93;;;;;;;;;;4974262;28;20455;-52
2023/03/24 01:03:26;;;;;;;4.27;1.73;;;;;;;;;;5012861;28;20513;-54
2023/03/24 01:05:56;;;;;;;2.50;2.20;;;;;;;;;;4996003;28;20497;-54
2023/03/24 01:08:22;;;;;;;2.77;2.47;;;;;;;;;;5020757;28;20454;-54
2023/03/24 01:10:52;;;;;;;5.07;2.43;;;;;;;;;;4994903;28;20447;-53
2023/03/24 01:13:19;;;;;;;3.90;2.07;;;;;;;;;;5021604;28;20478;-54
2023/03/24 01:15:45;;;;;;;3.60;1.87;;;;;;;;;;4988453;28;20509;-53
2023/03/24 01:18:14;;;;;;;2.63;1.93;;;;;;;;;;5012120;28;20443;-53
2023/03/24 01:20:40;;;;;;;2.37;2.17;;;;;;;;;;5015300;28;20450;-53
2023/03/24 01:23:06;;;;;;;4.97;2.20;;;;;;;;;;5017841;28;20565;-53
2023/03/24 01:25:34;;;;;;;3.20;1.70;;;;;;;;;;5017456;28;20451;-53
2023/03/24 01:28:00;;;;;;;2.40;2.00;;;;;;;;;;4993711;28;20508;-53
2023/03/24 01:30:27;;;;;;;2.83;1.73;;;;;;;;;;5022122;28;20771;-53
2023/03/24 01:32:53;;;;;;;2.83;1.50;;;;;;;;;;4975377;28;20531;-52
2023/03/24 01:35:19;;;;;;;3.60;2.20;;;;;;;;;;4989069;28;20466;-53
2023/03/24 01:37:45;;;;;;;3.50;1.80;;;;;;;;;;5020623;28;20435;-52
2023/03/24 01:40:30;;;;;;;2.00;1.60;;;;;;;;;;4999147;28;20447;-54
2023/03/24 01:42:56;;;;;;;2.73;2.00;;;;;;;;;;5020172;28;20493;-54
2023/03/24 01:45:40;;;;;;;2.50;1.77;;;;;;;;;;4983686;28;20747;-54
2023/03/24 01:48:25;;;;;;;3.90;1.97;;;;;;;;;;5017330;28;20439;-53
2023/03/24 01:51:12;;;;;;;2.40;1.60;;;;;;;;;;5021444;28;20477;-54
2023/03/24 01:53:39;;;;;;;4.37;3.20;;;;;;;;;;5020604;28;20469;-52
2023/03/24 01:56:06;;;;;;;2.70;2.10;;;;;;;;;;5016103;28;20859;-52
2023/03/24 01:58:32;;;;;;;4.47;1.97;;;;;;;;;;5023849;28;20444;-53
2023/03/24 02:00:58;;;;;;;2.63;1.57;;;;;;;;;;4991381;28;20548;-53
2023/03/24 02:03:24;;;;;;;2.20;1.70;;;;;;;;;;5017900;28;21227;-53
2023/03/24 02:05:50;;;;;;;2.67;1.60;;;;;;;;;;4952147;28;20467;-53
2023/03/24 02:08:25;;;;;;;2.43;1.87;;;;;;;;;;5020507;28;20492;-53
2023/03/24 02:10:51;;;;;;;2.20;1.50;;;;;;;;;;5034438;28;21270;-54
2023/03/24 02:13:17;;;;;;;2.63;1.90;;;;;;;;;;5000578;28;20457;-52
2023/03/24 02:15:54;;;;;;;2.97;2.00;;;;;;;;;;4985177;28;20443;-52
2023/03/24 02:18:32;;;;;;;1.70;1.30;;;;;;;;;;5033047;28;21759;-53
2023/03/24 02:21:16;;;;;;;2.30;1.77;;;;;;;;;;4992837;28;20461;-54
2023/03/24 02:23:58;;;;;;;3.77;1.60;;;;;;;;;;5015363;28;20479;-53
2023/03/24 02:26:39;;;;;;;2.67;1.90;;;;;;;;;;5018094;28;20469;-52
2023/03/24 02:29:26;;;;;;;2.93;1.93;;;;;;;;;;5020546;28;20497;-54
2023/03/24 02:32:08;;;;;;;1.77;1.43;;;;;;;;;;4995461;28;20785;-54
2023/03/24 02:34:36;;;;;;;2.33;2.00;;;;;;;;;;5004161;28;20435;-59
2023/03/24 02:37:26;;;;;;;2.13;1.37;;;;;;;;;;4985329;28;20435;-54
2023/03/24 02:40:11;;;;;;;2.50;2.30;;;;;;;;;;5017616;28;20454;-53
2023/03/24 02:42:49;;;;;;;3.33;1.90;;;;;;;;;;5011688;28;20518;-53
2023/03/24 02:45:23;;;;;;;2.53;1.70;;;;;;;;;;5011831;28;20447;-54
2023/03/24 02:47:52;;;;;;;2.93;1.90;;;;;;;;;;4993463;28;20446;-53
2023/03/24 02:50:42;;;;;;;4.03;1.60;;;;;;;;;;5000020;28;20471;-53
2023/03/24 02:53:17;;;;;;;5.80;1.90;;;;;;;;;;5018624;28;20470;-52
2023/03/24 02:55:49;;;;;;;3.50;2.40;;;;;;;;;;5019902;28;20478;-53
2023/03/24 02:58:16;;;;;;;3.40;1.40;;;;;;;;;;5000436;28;20424;-52
2023/03/24 03:00:46;;;;;;;3.40;1.83;;;;;;;;;;5008643;28;21070;-52
2023/03/24 03:03:14;;;;;;;3.10;2.17;;;;;;;;;;5012411;28;21317;-52
2023/03/24 03:05:52;;;;;;;3.93;1.80;;;;;;;;;;5013658;28;20469;-54
2023/03/24 03:08:28;;;;;;;1.93;1.70;;;;;;;;;;5007002;28;20471;-55
2023/03/24 03:10:56;;;;;;;2.57;2.07;;;;;;;;;;5001070;28;20441;-55
2023/03/24 03:13:27;;;;;;;2.33;1.43;;;;;;;;;;5023139;28;20450;-54
2023/03/24 03:15:54;;;;;;;2.27;1.93;;;;;;;;;;5008786;28;20455;-54
2023/03/24 03:18:33;;;;;;;6.53;1.80;;;;;;;;;;5036111;28;20477;-53
2023/03/24 03:21:04;;;;;;;2.27;1.60;;;;;;;;;;4985830;28;20611;-53
2023/03/24 03:23:40;;;;;;;3.57;1.63;;;;;;;;;;5040415;28;20494;-52
2023/03/24 03:26:08;;;;;;;1.97;1.77;;;;;;;;;;5021898;28;21316;-53
2023/03/24 03:28:35;;;;;;;2.97;1.93;;;;;;;;;;5022573;28;20458;-53
2023/03/24 03:31:05;;;;;;;2.60;1.70;;;;;;;;;;4989572;28;20436;-53
2023/03/24 03:33:33;;;;;;;4.10;2.37;;;;;;;;;;5022796;28;20504;-53
2023/03/24 03:36:07;;;;;;;3.70;2.37;;;;;;;;;;4993854;28;20912;-53
2023/03/24 03:38:59;;;;;;;3.00;1.57;;;;;;;;;;5015896;28;20439;-56
2023/03/24 03:41:25;;;;;;;3.07;2.07;;;;;;;;;;5004532;28;20466;-53
2023/03/24 03:43:51;;;;;;;5.60;1.90;;;;;;;;;;5020999;28;20550;-52
2023/03/24 03:46:17;;;;;;;3.03;2.07;;;;;;;;;;5013226;28;20435;-52
2023/03/24 03:48:43;;;;;;;7.07;1.90;;;;;;;;;;5010902;28;20446;-53
2023/03/24 03:51:09;;;;;;;4.13;1.73;;;;;;;;;;4996204;28;20446;-55
2023/03/24 03:53:54;;;;;;;3.37;1.90;;;;;;;;;;5015727;28;20479;-54
2023/03/24 03:56:22;;;;;;;2.77;1.77;;;;;;;;;;5001680;28;20454;-53
2023/03/24 03:58:48;;;;;;;4.30;1.90;;;;;;;;;;5015516;28;20529;-52
2023/03/24 04:01:18;;;;;;;1.83;1.60;;;;;;;;;;5016026;28;20434;-53
2023/03/24 04:03:50;;;;;;;8.70;2.00;;;;;;;;;;5012680;28;20470;-53
2023/03/24 04:06:30;;;;;;;2.43;1.60;;;;;;;;;;5016440;28;20528;-52
2023/03/24 04:09:06;;;;;;;3.43;1.67;;;;;;;;;;5001623;28;21378;-53
2023/03/24 04:11:35;;;;;;;3.80;1.60;;;;;;;;;;5018066;28;20971;-52
2023/03/24 04:14:10;;;;;;;2.37;1.63;;;;;;;;;;5009330;28;22863;-53
2023/03/24 04:16:56;;;;;;;4.70;2.17;;;;;;;;;;5023424;28;20963;-52
2023/03/24 04:19:37;;;;;;;2.80;1.50;;;;;;;;;;4986654;28;20447;-52
2023/03/24 04:22:11;;;;;;;4.53;1.90;;;;;;;;;;5020194;28;20450;-53
2023/03/24 04:24:39;;;;;;;2.23;1.70;;;;;;;;;;5034564;28;21163;-53
2023/03/24 04:27:13;;;;;;;2.47;1.70;;;;;;;;;;5022091;28;20419;-55
2023/03/24 04:29:58;;;;;;;5.27;1.60;;;;;;;;;;5007253;28;20474;-53
2023/03/24 04:32:46;;;;;;;3.50;2.23;;;;;;;;;;5024692;28;20494;-55
2023/03/24 04:35:30;;;;;;;2.90;1.53;;;;;;;;;;5006352;28;20768;-54
2023/03/24 04:37:56;;;;;;;3.00;1.53;;;;;;;;;;5013935;28;20497;-53
2023/03/24 04:40:22;;;;;;;2.30;1.60;;;;;;;;;;4984281;28;20539;-54
2023/03/24 04:42:51;;;;;;;2.30;1.80;;;;;;;;;;5013007;28;20475;-53
2023/03/24 04:45:17;;;;;;;2.60;1.77;;;;;;;;;;5000445;28;20184;-53
2023/03/24 04:47:44;;;;;;;2.33;1.97;;;;;;;;;;5014205;28;20444;-53
2023/03/24 04:50:11;;;;;;;3.07;1.93;;;;;;;;;;4948062;28;20497;-54
2023/03/24 04:52:37;;;;;;;1.80;1.40;;;;;;;;;;5024550;28;20785;-53
2023/03/24 04:55:05;;;;;;;3.40;1.73;;;;;;;;;;5018342;28;20439;-53
2023/03/24 04:57:31;;;;;;;2.40;1.60;;;;;;;;;;5017969;28;20435;-53
2023/03/24 04:59:57;;;;;;;3.07;2.20;;;;;;;;;;4994652;28;21231;-53
2023/03/24 05:02:23;;;;;;;2.33;1.60;;;;;;;;;;5029634;28;20483;-54
2023/03/24 05:04:49;;;;;;;2.57;1.50;;;;;;;;;;5012895;28;21403;-53
2023/03/24 05:07:16;;;;;;;2.90;1.90;;;;;;;;;;5009324;28;20435;-53
2023/03/24 05:09:42;;;;;;;2.50;1.70;;;;;;;;;;5006210;28;20992;-53
2023/03/24 05:12:08;;;;;;;2.13;1.30;;;;;;;;;;4989291;28;20562;-56
2023/03/24 05:14:34;;;;;;;2.63;1.73;;;;;;;;;;5013756;28;21543;-55
2023/03/24 05:17:00;;;;;;;2.77;1.60;;;;;;;;;;4991450;28;20447;-54
2023/03/24 05:19:26;;;;;;;1.93;1.70;;;;;;;;;;5017643;28;20196;-54
2023/03/24 05:21:53;;;;;;;1.70;1.60;;;;;;;;;;4951356;28;21187;-51
2023/03/24 05:24:19;;;;;;;2.60;1.90;;;;;;;;;;5014097;28;21467;-53
2023/03/24 05:26:45;;;;;;;2.67;1.87;;;;;;;;;;4986389;28;20452;-53
2023/03/24 05:29:11;;;;;;;3.57;2.43;;;;;;;;;;5010538;28;20427;-52
2023/03/24 05:31:37;;;;;;;2.13;1.43;;;;;;;;;;4989369;28;21043;-54
2023/03/24 05:34:03;;;;;;;2.90;1.77;;;;;;;;;;5004587;28;20195;-54
2023/03/24 05:36:29;;;;;;;3.40;2.13;;;;;;;;;;4999712;28;20451;-54
2023/03/24 05:38:55;;;;;;;2.57;2.00;;;;;;;;;;5001232;28;20439;-53
2023/03/24 05:41:21;;;;;;;2.40;1.60;;;;;;;;;;5007067;28;20465;-52
2023/03/24 05:43:47;;;;;;;2.10;1.67;;;;;;;;;;4998489;28;20473;-53
2023/03/24 05:46:13;;;;;;;3.20;2.27;;;;;;;;;;5000058;28;20457;-53
2023/03/24 05:48:39;;;;;;;2.40;1.80;;;;;;;;;;4996789;28;20435;-54
2023/03/24 05:51:08;;;;;;;3.80;2.40;;;;;;;;;;5022603;28;20462;-54
2023/03/24 05:53:34;;;;;;;3.97;1.97;;;;;;;;;;4980972;28;20470;-54
2023/03/24 05:56:00;;;;;;;3.00;2.10;;;;;;;;;;5012870;28;20443;-55
2023/03/24 05:58:26;;;;;;;3.80;2.37;;;;;;;;;;4996124;28;20184;-55
2023/03/24 06:00:53;;;;;;;4.40;2.00;;;;;;;;;;5008377;28;20445;-53
2023/03/24 06:03:19;;;;;;;3.40;1.97;;;;;;;;;;5006204;28;20482;-53
2023/03/24 06:05:46;;;;;;;3.20;2.27;;;;;;;;;;5010432;28;20994;-54
2023/03/24 06:08:12;;;;;;;3.70;1.70;;;;;;;;;;5011945;28;20482;-54
2023/03/24 06:10:39;;;;;;;3.80;2.10;;;;;;;;;;5013719;28;20436;-53
2023/03/24 06:13:07;;;;;;;2.70;2.43;;;;;;;;;;5016267;28;20435;-54
2023/03/24 06:15:33;;;;;;;2.53;1.90;;;;;;;;;;4998792;28;20446;-53
2023/03/24 06:17:59;;;;;;;3.20;2.27;;;;;;;;;;4994746;28;20982;-53
2023/03/24 06:20:26;;;;;;;4.40;2.40;;;;;;;;;;5010145;28;20469;-53
2023/03/24 06:22:57;;;;;;;3.93;3.00;;;;;;;;;;5020351;28;20498;-53
2023/03/24 06:25:26;;;;;;;3.60;2.70;;;;;;;;;;5023357;28;20469;-53
2023/03/24 06:27:51;;;;;;;2.57;2.13;;;;;;;;;;4977021;28;20823;-54
2023/03/24 06:30:18;;;;;;;4.97;2.67;;;;;;;;;;5025207;28;20508;-53
2023/03/24 06:32:47;;;;;;;3.70;2.70;;;;;;;;;;5023526;28;20177;-53
2023/03/24 06:35:14;;;;;;;4.33;3.00;;;;;;;;;;5022738;28;20442;-54
2023/03/24 06:37:40;;;;;;;3.10;2.50;;;;;;;;;;4991013;28;20439;-54
2023/03/24 06:40:09;;;;;;;2.83;2.10;;;;;;;;;;5022599;28;20440;-53
2023/03/24 06:42:35;;;;;;;3.47;2.73;;;;;;;;;;4991607;28;20470;-54
2023/03/24 06:45:00;;;;;;;4.33;2.67;;;;;;;;;;5025579;28;20443;-55
2023/03/24 06:47:26;;;;;;;5.40;2.97;;;;;;;;;;4985601;28;20499;-53
2023/03/24 06:49:52;;;;;;;3.87;3.37;;;;;;;;;;5016973;28;20467;-54
2023/03/24 06:52:19;;;;;;;3.10;2.30;;;;;;;;;;4991044;28;20459;-55
2023/03/24 06:54:45;;;;;;;3.20;2.40;;;;;;;;;;5020614;28;20433;-54
2023/03/24 06:57:11;;;;;;;3.10;2.50;;;;;;;;;;5019996;28;20443;-53
2023/03/24 06:59:36;;;;;;;2.77;2.50;;;;;;;;;;5036935;28;20439;-55
2023/03/24 07:02:06;;;;;;;5.30;2.40;;;;;;;;;;4946602;28;20859;-55
2023/03/24 07:04:35;;;;;;;2.30;2.10;;;;;;;;;;5017246;28;20483;-53
2023/03/24 07:07:01;;;;;;;3.10;2.30;;;;;;;;;;5019527;28;20431;-54
2023/03/24 07:09:27;;;;;;;3.03;2.20;;;;;;;;;;5007492;28;20454;-53
2023/03/24 07:11:53;;;;;;;3.13;2.40;;;;;;;;;;5004038;28;20432;-54
2023/03/24 07:14:20;;;;;;;3.20;2.07;;;;;;;;;;5010644;28;20962;-53
2023/03/24 07:16:47;;;;;;;3.70;1.87;;;;;;;;;;5009330;28;20514;-54
2023/03/24 07:19:12;;;;;;;2.70;2.50;;;;;;;;;;5005196;28;20451;-54
2023/03/24 07:21:38;;;;;;;3.10;2.60;;;;;;;;;;5014535;28;20493;-53
2023/03/24 07:24:05;;;;;;;3.57;2.30;;;;;;;;;;5020423;28;20238;-54
2023/03/24 07:26:31;;;;;;;3.60;2.93;;;;;;;;;;5021008;28;20529;-54
2023/03/24 07:28:56;;;;;;;3.80;2.83;;;;;;;;;;5001520;28;20530;-53
2023/03/24 07:31:23;;;;;;;4.00;2.90;;;;;;;;;;5019913;28;20423;-57
2023/03/24 07:33:50;;;;;;;4.63;3.30;;;;;;;;;;4939721;28;21080;-54
2023/03/24 07:36:16;;;;;;;7.13;2.87;;;;;;;;;;5020424;28;20448;-53
2023/03/24 07:38:42;;;;;;;4.33;3.70;;;;;;;;;;4994142;28;20513;-53
2023/03/24 07:41:08;;;;;;;3.03;2.13;;;;;;;;;;5024867;28;20450;-54
2023/03/24 07:43:34;;;;;;;3.60;2.40;;;;;;;;;;4992953;28;20470;-53
2023/03/24 07:46:00;;;;;;;3.30;2.10;;;;;;;;;;5022179;28;20443;-54
2023/03/24 07:48:26;;;;;;;4.37;2.87;;;;;;;;;;4992101;28;20480;-55
2023/03/24 07:50:52;;;;;;;4.57;3.00;;;;;;;;;;5022441;28;20446;-53
2023/03/24 07:53:18;;;;;;;4.33;2.77;;;;;;;;;;5020668;28;20457;-56
2023/03/24 07:55:45;;;;;;;5.83;3.17;;;;;;;;;;5027053;28;20530;-55
2023/03/24 07:58:11;;;;;;;2.77;2.47;;;;;;;;;;4997061;28;20443;-52
2023/03/24 08:00:37;;;;;;;3.50;3.17;;;;;;;;;;4985333;28;20435;-53
2023/03/24 08:03:03;;;;;;;5.30;3.43;;;;;;;;;;4984975;28;20543;-55
2023/03/24 08:05:30;;;;;;;5.27;3.80;;;;;;;;;;4968178;28;20517;-54
2023/03/24 08:07:56;;;;;;;4.20;2.70;;;;;;;;;;5015203;28;20439;-55
2023/03/24 08:10:26;;;;;;;3.50;3.03;;;;;;;;;;4982735;28;20443;-55
2023/03/24 08:12:52;;;;;;;7.90;3.93;;;;;;;;;;5010875;28;20514;-54
2023/03/24 08:15:18;;;;;;;3.43;2.93;;;;;;;;;;4956210;28;20944;-56
2023/03/24 08:17:44;;;;;;;5.07;3.20;;;;;;;;;;5012530;28;21060;-56
2023/03/24 08:20:13;;;;;;;2.60;2.20;;;;;;;;;;4990398;28;20537;-54
2023/03/24 08:22:39;;;;;;;5.50;3.03;;;;;;;;;;5023182;28;20467;-55
2023/03/24 08:25:05;;;;;;;3.20;2.43;;;;;;;;;;4999926;28;20451;-55
2023/03/24 08:27:32;;;;;;;4.43;2.63;;;;;;;;;;5019940;28;20427;-55
2023/03/24 08:29:57;;;;;;;5.30;2.60;;;;;;;;;;5012886;28;20447;-53
2023/03/24 08:32:23;;;;;;;3.70;2.70;;;;;;;;;;5020590;28;20443;-54
2023/03/24 08:34:49;;;;;;;5.50;2.63;;;;;;;;;;5016053;28;20446;-54
2023/03/24 08:37:15;;;;;;;3.90;2.80;;;;;;;;;;5018601;28;20959;-53
2023/03/24 08:39:41;;;;;;;4.00;2.40;;;;;;;;;;4970511;28;20552;-54
2023/03/24 08:42:07;;;;;;;4.20;2.77;;;;;;;;;;5015492;28;20436;-53
2023/03/24 08:44:33;;;;;;;5.50;3.10;;;;;;;;;;4990694;28;21436;-52
2023/03/24 08:47:02;;;;;;;5.23;2.80;;;;;;;;;;5013323;28;20962;-53
2023/03/24 08:49:28;;;;;;;7.50;3.00;;;;;;;;;;4999925;28;20481;-54
2023/03/24 08:51:54;;;;;;;3.77;2.50;;;;;;;;;;5014215;28;20471;-53
2023/03/24 08:54:22;;;;;;;3.17;2.83;;;;;;;;;;4999329;28;20562;-53
2023/03/24 08:56:48;;;;;;;2.60;2.23;;;;;;;;;;5009310;28;20451;-54
2023/03/24 08:59:14;;;;;;;2.87;2.30;;;;;;;;;;5006495;28;20645;-54
2023/03/24 09:01:40;;;;;;;2.53;2.00;;;;;;;;;;4995637;28;20451;-53
2023/03/24 09:04:07;;;;;;;3.13;2.50;;;;;;;;;;5020238;28;20493;-55
2023/03/24 09:06:33;;;;;;;2.80;2.37;;;;;;;;;;5015257;28;20534;-53
2023/03/24 09:08:59;;;;;;;3.80;2.40;;;;;;;;;;5013264;28;20435;-53
2023/03/24 09:11:26;;;;;;;4.00;2.63;;;;;;;;;;4983521;28;20450;-54
2023/03/24 09:13:52;;;;;;;2.77;1.83;;;;;;;;;;5014586;28;20428;-54
2023/03/24 09:16:18;;;;;;;2.20;2.00;;;;;;;;;;4974711;28;20470;-54
2023/03/24 09:18:44;;;;;;;3.10;2.60;;;;;;;;;;5014296;28;21400;-54
2023/03/24 09:21:10;;;;;;;3.00;2.20;;;;;;;;;;4991922;28;20467;-54
2023/03/24 09:23:36;;;;;;;2.47;1.50;;;;;;;;;;5019509;28;21221;-54
2023/03/24 09:26:02;;;;;;;2.87;2.00;;;;;;;;;;4979466;28;20460;-54
2023/03/24 09:28:28;;;;;;;2.50;2.03;;;;;;;;;;5016438;28;21012;-54
2023/03/24 09:30:58;;;;;;;3.63;2.20;;;;;;;;;;4990530;28;20451;-55
2023/03/24 09:33:24;;;;;;;2.50;1.67;;;;;;;;;;5023459;28;20446;-54
2023/03/24 09:35:53;;;;;;;7.70;2.90;;;;;;;;;;5014512;28;21050;-55
2023/03/24 09:38:20;;;;;;;2.63;2.33;;;;;;;;;;5018907;28;20443;-54
2023/03/24 09:40:46;;;;;;;2.70;1.73;;;;;;;;;;4965212;28;20443;-53
2023/03/24 09:43:24;;;;;;;2.93;2.03;;;;;;;;;;5028872;28;20489;-53
2023/03/24 09:45:54;;;;;;;2.33;2.03;;;;;;;;;;4980463;28;20262;-53
2023/03/24 09:48:40;;;;;;;3.50;2.40;;;;;;;;;;5007549;28;20799;-52
2023/03/24 09:51:10;;;;;;;3.47;2.33;;;;;;;;;;5002534;28;20518;-53
2023/03/24 09:53:39;;;;;;;2.20;1.70;;;;;;;;;;5027709;28;20532;-53
2023/03/24 09:56:15;;;;;;;4.30;2.10;;;;;;;;;;4987580;28;20779;-55
2023/03/24 09:58:42;;;;;;;3.00;1.93;;;;;;;;;;5010793;28;20811;-53
2023/03/24 10:01:15;;;;;;;2.70;1.83;;;;;;;;;;4982898;28;20945;-54
2023/03/24 10:03:44;;;;;;;2.97;2.17;;;;;;;;;;5009320;28;20574;-53
2023/03/24 10:06:13;;;;;;;2.63;2.20;;;;;;;;;;5007369;28;20822;-54
2023/03/24 10:08:49;;;;;;;3.73;2.20;;;;;;;;;;5012775;28;20877;-54
2023/03/24 10:11:19;;;;;;;2.50;1.93;;;;;;;;;;4963588;28;21448;-53
2023/03/24 10:13:51;;;;;;;3.90;1.90;;;;;;;;;;5008076;28;20484;-54
2023/03/24 10:16:17;;;;;;;2.20;1.90;;;;;;;;;;4992849;28;20459;-55
2023/03/24 10:18:45;;;;;;;3.97;1.60;;;;;;;;;;5010973;28;20427;-55
2023/03/24 10:21:17;;;;;;;2.57;2.33;;;;;;;;;;5008053;28;20439;-54
2023/03/24 10:23:43;;;;;;;2.63;1.87;;;;;;;;;;5016359;28;20479;-53
2023/03/24 10:26:16;;;;;;;3.20;1.77;;;;;;;;;;4990343;28;21327;-54
2023/03/24 10:29:00;;;;;;;2.27;1.60;;;;;;;;;;5016775;28;20172;-53
2023/03/24 10:31:30;;;;;;;1.77;1.43;;;;;;;;;;4980186;28;20519;-54
2023/03/24 10:33:56;;;;;;;3.00;1.73;;;;;;;;;;5028135;28;21054;-55
2023/03/24 10:36:23;;;;;;;2.50;1.60;;;;;;;;;;4998075;28;22754;-53
2023/03/24 10:38:49;;;;;;;2.63;1.73;;;;;;;;;;5013732;28;20192;-53
2023/03/24 10:41:23;;;;;;;2.03;1.50;;;;;;;;;;4978474;28;21182;-54
2023/03/24 10:43:52;;;;;;;7.70;1.40;;;;;;;;;;5010229;28;20478;-54
2023/03/24 10:46:21;;;;;;;2.73;1.97;;;;;;;;;;5009727;28;20459;-54
2023/03/24 10:48:51;;;;;;;1.70;1.40;;;;;;;;;;4977288;28;20462;-54
2023/03/24 10:51:18;;;;;;;1.50;1.10;;;;;;;;;;5001279;28;20423;-54
2023/03/24 10:53:47;;;;;;;1.50;1.10;;;;;;;;;;4998576;28;20453;-55
2023/03/24 10:56:19;;;;;;;1.80;1.37;;;;;;;;;;5000566;28;21599;-55
2023/03/24 10:58:45;;;;;;;1.83;1.30;;;;;;;;;;5005879;28;20547;-55
2023/03/24 11:01:23;;;;;;;2.13;1.30;;;;;;;;;;5017468;28;20462;-53
2023/03/24 11:03:49;;;;;;;1.80;1.33;;;;;;;;;;5022681;28;20483;-55
2023/03/24 11:06:19;;;;;;;1.30;0.97;;;;;;;;;;5013247;28;20450;-54
2023/03/24 11:08:45;;;;;;;3.73;1.53;;;;;;;;;;5009716;28;21218;-54
2023/03/24 11:11:28;;;;;;;1.83;1.20;;;;;;;;;;5029037;28;20570;-53
2023/03/24 11:13:57;;;;;;;2.53;1.40;;;;;;;;;;4990502;28;20447;-52
2023/03/24 11:16:28;;;;;;;2.23;1.20;;;;;;;;;;5003737;28;20427;-58
2023/03/24 11:18:55;;;;;;;2.67;1.40;;;;;;;;;;4997775;28;20443;-54
2023/03/24 11:21:21;;;;;;;2.23;1.40;;;;;;;;;;5001563;28;20434;-55
2023/03/24 11:23:47;;;;;;;1.93;1.30;;;;;;;;;;5002817;28;20478;-54
2023/03/24 11:26:15;;;;;;;2.40;2.20;;;;;;;;;;4996622;28;20534;-52
2023/03/24 11:28:42;;;;;;;2.00;1.40;;;;;;;;;;5000763;28;20231;-54
2023/03/24 11:31:09;;;;;;;1.77;1.10;;;;;;;;;;5002163;28;20492;-54
2023/03/24 11:33:36;;;;;;;2.00;1.00;;;;;;;;;;4981154;28;21235;-53
2023/03/24 11:36:07;;;;;;;2.13;1.20;;;;;;;;;;5010443;28;20458;-55
2023/03/24 11:38:34;;;;;;;3.30;1.00;;;;;;;;;;5010412;28;20473;-52
2023/03/24 11:41:03;;;;;;;3.90;1.40;;;;;;;;;;5018154;28;20435;-54
2023/03/24 11:43:37;;;;;;;1.60;1.10;;;;;;;;;;4999829;28;21067;-52
2023/03/24 11:46:12;;;;;;;1.70;1.27;;;;;;;;;;5013506;28;20504;-53
2023/03/24 11:48:38;;;;;;;1.60;1.10;;;;;;;;;;5019373;28;20930;-55
2023/03/24 11:51:04;;;;;;;3.40;1.33;;;;;;;;;;5011675;28;20435;-53
2023/03/24 11:53:33;;;;;;;1.50;1.00;;;;;;;;;;5007523;28;20505;-54
2023/03/24 11:56:05;;;;;;;5.57;1.10;;;;;;;;;;5020178;28;20427;-54
2023/03/24 11:58:36;;;;;;;2.53;1.10;;;;;;;;;;5021250;28;20496;-53
2023/03/24 12:01:04;;;;;;;1.50;1.10;;;;;;;;;;5016486;28;20426;-53
2023/03/24 12:03:36;;;;;;;1.53;1.07;;;;;;;;;;4955673;28;20499;-53
2023/03/24 12:06:06;;;;;;;1.93;0.73;;;;;;;;;;5012085;28;20439;-55
2023/03/24 12:08:45;;;;;;;1.53;0.93;;;;;;;;;;4986865;28;20447;-54
2023/03/24 12:11:14;;;;;;;4.30;0.97;;;;;;;;;;5035017;28;20525;-54
2023/03/24 12:13:41;;;;;;;1.30;0.77;;;;;;;;;;4995133;28;20450;-53
2023/03/24 12:16:13;;;;;;;3.00;0.90;;;;;;;;;;5025205;28;20439;-56
2023/03/24 12:18:39;;;;;;;1.73;1.00;;;;;;;;;;4976737;28;21057;-54
2023/03/24 12:21:28;;;;;;;1.30;0.90;;;;;;;;;;5016865;28;20749;-53
2023/03/24 12:23:58;;;;;;;1.60;0.70;;;;;;;;;;4988134;28;20597;-55
2023/03/24 12:26:27;;;;;;;3.03;1.80;;;;;;;;;;5016556;28;20443;-53
2023/03/24 12:28:54;;;;;;;1.53;0.70;;;;;;;;;;4986936;28;20517;-53
2023/03/24 12:31:27;;;;;;;1.53;0.73;;;;;;;;;;5017214;28;20435;-54
2023/03/24 12:33:59;;;;;;;1.27;0.80;;;;;;;;;;4990345;28;20481;-53
2023/03/24 12:36:52;;;;;;;1.20;0.70;;;;;;;;;;5016158;28;20442;-55
2023/03/24 12:39:20;;;;;;;1.60;0.77;;;;;;;;;;5007482;28;20481;-53
2023/03/24 12:41:58;;;;;;;1.20;0.70;;;;;;;;;;5013184;28;20485;-52
2023/03/24 12:44:29;;;;;;;1.40;0.70;;;;;;;;;;4980243;28;21094;-54
2023/03/24 12:46:55;;;;;;;1.60;0.83;;;;;;;;;;4987012;28;20940;-53
2023/03/24 12:49:28;;;;;;;1.87;0.73;;;;;;;;;;5005986;28;20798;-53
2023/03/24 12:51:56;;;;;;;1.10;0.60;;;;;;;;;;4965084;28;20451;-54
2023/03/24 12:54:26;;;;;;;1.20;0.67;;;;;;;;;;5014822;28;20804;-54
2023/03/24 12:57:00;;;;;;;1.40;0.90;;;;;;;;;;4984116;28;21546;-54
2023/03/24 12:59:26;;;;;;;1.90;0.80;;;;;;;;;;5009964;28;20445;-52
2023/03/24 13:01:52;;;;;;;1.73;0.83;;;;;;;;;;4981316;28;20447;-55
2023/03/24 13:04:20;;;;;;;1.17;0.67;;;;;;;;;;5009126;28;20485;-52
2023/03/24 13:06:53;;;;;;;1.10;0.70;;;;;;;;;;4983329;28;20561;-53
2023/03/24 13:09:25;;;;;;;1.20;0.70;;;;;;;;;;5013877;28;20447;-53
2023/03/24 13:11:57;;;;;;;1.40;0.70;;;;;;;;;;5000976;28;20449;-54
2023/03/24 13:14:31;;;;;;;1.10;0.70;;;;;;;;;;5008910;28;20442;-54
2023/03/24 13:17:00;;;;;;;1.40;0.80;;;;;;;;;;4989183;28;20450;-54
2023/03/24 13:19:26;;;;;;;1.10;0.70;;;;;;;;;;5011562;28;20905;-53
2023/03/24 13:21:52;;;;;;;1.30;0.80;;;;;;;;;;5002553;28;20483;-55
2023/03/24 13:24:18;;;;;;;1.93;1.20;;;;;;;;;;5015196;28;20220;-54
2023/03/24 13:26:44;;;;;;;1.50;0.70;;;;;;;;;;4953878;28;20462;-53
2023/03/24 13:29:21;;;;;;;1.50;0.73;;;;;;;;;;4974791;28;20978;-53
2023/03/24 13:31:57;;;;;;;1.50;0.73;;;;;;;;;;5013726;28;20446;-53
2023/03/24 13:34:28;;;;;;;1.63;0.70;;;;;;;;;;4994048;28;20744;-53
2023/03/24 13:36:55;;;;;;;1.20;0.63;;;;;;;;;;5008668;28;20459;-54
2023/03/24 13:39:21;;;;;;;1.40;0.73;;;;;;;;;;4994204;28;20705;-54
2023/03/24 13:41:48;;;;;;;1.50;0.77;;;;;;;;;;5008727;28;20514;-54
2023/03/24 13:44:17;;;;;;;1.20;0.60;;;;;;;;;;4996848;28;20483;-52
2023/03/24 13:46:43;;;;;;;1.10;0.70;;;;;;;;;;5027763;28;20523;-54
2023/03/24 13:49:13;;;;;;;1.93;0.80;;;;;;;;;;4997455;28;20481;-53
2023/03/24 13:51:45;;;;;;;2.10;1.33;;;;;;;;;;5003721;28;20434;-53
2023/03/24 13:54:18;;;;;;;1.20;0.70;;;;;;;;;;4981503;28;20479;-53
2023/03/24 13:56:47;;;;;;;1.40;0.70;;;;;;;;;;5012207;28;20438;-55
2023/03/24 13:59:33;;;;;;;1.33;0.80;;;;;;;;;;5003614;28;20431;-55
2023/03/24 14:02:16;;;;;;;1.40;0.70;;;;;;;;;;4979755;28;20439;-53
2023/03/24 14:04:45;;;;;;;1.30;0.77;;;;;;;;;;4997462;28;24803;-53
2023/03/24 14:07:31;;;;;;;1.63;0.80;;;;;;;;;;4994888;28;20426;-53
2023/03/24 14:10:19;;;;;;;1.97;0.97;;;;;;;;;;4986037;28;20490;-54
2023/03/24 14:13:15;;;;;;;1.10;0.70;;;;;;;;;;4983090;28;20434;-52
2023/03/24 14:15:56;;;;;;;1.20;0.70;;;;;;;;;;4999806;28;20492;-52
2023/03/24 14:18:22;;;;;;;1.37;0.90;;;;;;;;;;5012342;28;20558;-53
2023/03/24 14:20:57;;;;;;;2.60;0.80;;;;;;;;;;4977144;28;20451;-54
2023/03/24 14:23:32;;;;;;;3.10;1.03;;;;;;;;;;5011894;28;20212;-54
2023/03/24 14:25:58;;;;;;;1.80;0.83;;;;;;;;;;4986338;28;20447;-56
2023/03/24 14:28:43;;;;;;;1.30;0.90;;;;;;;;;;5020208;28;20438;-54
2023/03/24 14:31:15;;;;;;;1.60;1.00;;;;;;;;;;4958415;28;20450;-56
2023/03/24 14:33:51;;;;;;;4.17;1.00;;;;;;;;;;4985157;28;20471;-54
2023/03/24 14:36:31;;;;;;;1.63;0.83;;;;;;;;;;5001882;28;20449;-55
2023/03/24 14:39:07;;;;;;;2.27;1.00;;;;;;;;;;4996822;28;20923;-56
2023/03/24 14:41:37;;;;;;;2.83;1.30;;;;;;;;;;4991759;28;20634;-57
2023/03/24 14:44:04;;;;;;;2.40;1.00;;;;;;;;;;5001563;28;20501;-55
2023/03/24 14:46:34;;;;;;;1.17;0.70;;;;;;;;;;5008019;28;20453;-55
2023/03/24 14:49:19;;;;;;;2.03;1.63;;;;;;;;;;5009817;28;20526;-55
2023/03/24 14:51:45;;;;;;;1.10;0.80;;;;;;;;;;4981309;28;20443;-56
2023/03/24 14:54:15;;;;;;;1.63;1.10;;;;;;;;;;4996009;28;20516;-56
2023/03/24 14:56:43;;;;;;;3.27;1.20;;;;;;;;;;4984280;28;20440;-56
2023/03/24 14:59:35;;;;;;;1.50;0.90;;;;;;;;;;5006519;28;21285;-56